Avila Beach, CA

3:07 PM PST on December 18, 2014 (GMT -0800)
Santa Maria Public Airport / Captain G. Allan Hancock Field | Change Station
CLOSE
Current Station
Airport
Location: Santa Maria,
Elevation: 240 ft
Nearby Weather Stations
Active Advisory: Beach Hazard Statement

Elev 240 ft 34.90 °N, 120.45 °W | Updated 16 minutes ago

Overcast
Overcast
61 °F
Feels Like 61 °F
N
9
Wind Variable Wind from NW

Today
High -- | Low -- °F
--% Chance of Precip.
Yesterday
High -- | Low -- °F
Precip. -- in
7:05 AM 4:53 PM
Waning Crescent, 11% visible
Pressure 30.16 in
Visibility 10.0 miles
Clouds Overcast 4100 ft
Dew Point 52 °F
Humidity 72%
Rainfall 0.00 in
Snow Depth Not available.
UV 0 out of 12
Pollen 3.30 out of 12
Air Quality Not available.
Flu Activity Not available.
METAR KSMX 182251Z 31008KT 10SM OVC041 16/11 A3015 RMK AO2 SLP213 T01610111

More Conditions Fewer Conditions

Pressure 30.16 in
Visibility 10.0 miles
Clouds Overcast 4100 ft
Dew Point 52 °F
Humidity 72%
Rainfall 0.00 in
Snow Depth Not available.
UV 0 out of 12
Pollen 3.30 out of 12
Air Quality Not available.
Flu Activity Not available.
METAR KSMX 182251Z 31008KT 10SM OVC041 16/11 A3015 RMK AO2 SLP213 T01610111

More Conditions Fewer Conditions

10-Day Weather Forecast

Almanac

Astronomy

Dec. 18, 2014 Rise Set
Actual Time
Civil Twilight
Nautical Twilight
Astronomical Twilight
Moon
Length of Visible Light
Length of Day
Tomorrow will be .
, % of the Moon is Illuminated

Today's Extremes

State Highs State Lows

Community

WunderPhotos

Upload Photos

1,779,014 photos uploaded!

WunderBlogs® & News

Nearby

Air Quality

  Air Quality AQ Index Pollutant
Not available.

Snow Depth

Station Depth Elevation

Earthquake Activity

City Distance Mag. Time & Date
Minimum magnitude displayed is 2.5.

Coastal Water Temperatures

Place Temperature

Nearby Weather Stations